createdAt,value
2017-12-19T00:00:33.010Z,25.52
2017-12-19T00:03:00.246Z,24.45
2017-12-19T00:05:27.565Z,26.48
2017-12-19T00:07:54.859Z,25.65
2017-12-19T00:10:25.561Z,25.73
2017-12-19T00:12:52.796Z,27.02
2017-12-19T00:15:20.024Z,27.58
2017-12-19T00:17:47.258Z,25.37
2017-12-19T00:20:14.485Z,25.55
2017-12-19T00:22:41.810Z,27.67
2017-12-19T00:25:09.918Z,29.08
2017-12-19T00:27:37.235Z,30.77
2017-12-19T00:30:04.454Z,30.73
2017-12-19T00:32:31.782Z,33.05
2017-12-19T00:34:59.031Z,32.47
2017-12-19T00:37:26.285Z,31.87
2017-12-19T00:39:53.523Z,26.80
2017-12-19T00:42:20.851Z,28.83
2017-12-19T00:44:48.099Z,32.58
2017-12-19T00:47:15.313Z,28.23
2017-12-19T00:49:42.549Z,32.72
2017-12-19T00:52:09.856Z,31.33
2017-12-19T00:54:37.079Z,28.67
2017-12-19T00:57:04.314Z,27.35
2017-12-19T00:59:31.541Z,28.33
2017-12-19T01:01:58.864Z,25.80
2017-12-19T01:04:26.090Z,26.55
2017-12-19T01:06:53.313Z,26.23
2017-12-19T01:09:20.762Z,29.20
2017-12-19T01:11:47.947Z,30.00
2017-12-19T01:14:15.182Z,27.52
2017-12-19T01:16:42.414Z,23.83
2017-12-19T01:19:09.654Z,26.98
2017-12-19T01:21:36.877Z,26.48
2017-12-19T01:24:04.109Z,28.92
2017-12-19T01:26:31.329Z,28.50
2017-12-19T01:28:58.556Z,28.50
2017-12-19T01:31:25.887Z,30.35
2017-12-19T01:33:53.136Z,33.08
2017-12-19T01:36:20.355Z,35.42
2017-12-19T01:38:47.577Z,36.47
2017-12-19T01:41:14.810Z,41.00
2017-12-19T01:43:42.026Z,37.72
2017-12-19T01:46:09.258Z,39.40
2017-12-19T01:48:36.486Z,39.00
2017-12-19T01:51:03.798Z,36.13
2017-12-19T01:53:31.016Z,38.70
2017-12-19T01:55:58.242Z,39.13
2017-12-19T01:58:25.465Z,36.63
2017-12-19T02:00:52.703Z,34.67
2017-12-19T02:03:19.930Z,35.08
2017-12-19T02:05:47.161Z,35.30
2017-12-19T02:08:14.389Z,35.00
2017-12-19T02:10:41.625Z,35.65
2017-12-19T02:13:08.899Z,34.50
2017-12-19T02:15:36.149Z,35.75
2017-12-19T02:18:03.399Z,32.85
2017-12-19T02:20:30.642Z,32.13
2017-12-19T02:22:57.862Z,29.33
2017-12-19T02:25:25.097Z,31.05
2017-12-19T02:27:52.317Z,29.42
2017-12-19T02:30:19.612Z,30.33
2017-12-19T02:32:46.875Z,31.12
2017-12-19T02:35:14.170Z,29.75
2017-12-19T02:37:41.402Z,29.75
2017-12-19T02:40:08.630Z,26.65
2017-12-19T02:42:47.760Z,25.75
2017-12-19T02:45:15.053Z,26.23
2017-12-19T02:47:42.290Z,27.75
2017-12-19T02:50:09.523Z,29.73
2017-12-19T02:52:36.758Z,29.85
2017-12-19T02:55:04.055Z,29.30
2017-12-19T02:57:31.301Z,30.80
2017-12-19T02:59:58.575Z,27.60
2017-12-19T03:02:25.966Z,28.08
2017-12-19T03:04:53.170Z,29.55
2017-12-19T03:07:20.406Z,25.15
2017-12-19T03:09:47.630Z,31.00
2017-12-19T03:12:14.863Z,32.58
2017-12-19T03:14:42.087Z,28.23
2017-12-19T03:17:09.323Z,31.02
2017-12-19T03:19:36.590Z,30.88
2017-12-19T03:22:03.817Z,28.85
2017-12-19T03:24:31.041Z,28.17
2017-12-19T03:26:58.273Z,25.80
2017-12-19T03:29:25.494Z,33.45
2017-12-19T03:31:52.725Z,29.05
2017-12-19T03:34:20.050Z,28.35
2017-12-19T03:36:47.275Z,27.45
2017-12-19T03:39:14.486Z,26.92
2017-12-19T03:41:41.730Z,28.90
2017-12-19T03:44:08.994Z,25.60
2017-12-19T03:46:36.228Z,28.52
2017-12-19T03:49:03.462Z,29.12
2017-12-19T03:51:30.710Z,29.75
2017-12-19T03:53:58.529Z,29.60
2017-12-19T03:56:25.872Z,30.77
2017-12-19T03:58:53.182Z,27.83
2017-12-19T04:01:20.394Z,28.98
2017-12-19T04:03:47.625Z,28.62
2017-12-19T04:06:14.850Z,28.85
2017-12-19T04:08:42.127Z,26.98
2017-12-19T04:11:09.390Z,24.02
2017-12-19T04:13:36.734Z,26.17
2017-12-19T04:16:03.953Z,28.95
2017-12-19T04:18:31.187Z,26.45
2017-12-19T04:20:58.448Z,26.80
2017-12-19T04:23:25.681Z,26.05
2017-12-19T04:25:52.901Z,26.80
2017-12-19T04:28:20.141Z,28.12
2017-12-19T04:30:47.370Z,28.00
2017-12-19T04:33:14.593Z,30.12
2017-12-19T04:35:41.816Z,29.95
2017-12-19T04:38:09.149Z,28.30
2017-12-19T04:40:36.401Z,29.00
2017-12-19T04:43:03.642Z,23.33
2017-12-19T04:45:30.870Z,29.95
2017-12-19T04:47:58.148Z,28.92
2017-12-19T04:50:25.370Z,29.40
2017-12-19T04:52:52.669Z,29.33
2017-12-19T04:55:19.905Z,28.50
2017-12-19T04:57:47.134Z,29.60
2017-12-19T05:00:14.370Z,27.35
2017-12-19T05:02:41.589Z,28.33
2017-12-19T05:05:08.921Z,26.40
2017-12-19T05:07:36.144Z,26.60
2017-12-19T05:10:03.433Z,29.20
2017-12-19T05:12:30.665Z,25.77
2017-12-19T05:14:57.905Z,24.23
2017-12-19T05:17:25.133Z,27.23
2017-12-19T05:19:52.439Z,28.85
2017-12-19T05:22:19.664Z,28.80
2017-12-19T05:24:46.934Z,25.40
2017-12-19T05:27:14.163Z,27.27
2017-12-19T05:29:41.500Z,27.25
2017-12-19T05:32:08.714Z,27.48
2017-12-19T05:34:36.010Z,28.30
2017-12-19T05:37:03.181Z,28.25
2017-12-19T05:39:30.449Z,29.48
2017-12-19T05:41:57.801Z,29.83
2017-12-19T05:44:25.043Z,29.12
2017-12-19T05:46:52.277Z,31.05
2017-12-19T05:49:19.553Z,33.83
2017-12-19T05:51:46.785Z,31.95
2017-12-19T05:54:14.031Z,33.65
2017-12-19T05:56:41.260Z,29.35
2017-12-19T05:59:08.498Z,32.65
2017-12-19T06:01:35.738Z,34.03
2017-12-19T06:04:02.969Z,33.10
2017-12-19T06:06:30.217Z,38.85
2017-12-19T06:08:57.448Z,36.13
2017-12-19T06:11:24.681Z,33.30
2017-12-19T06:13:51.917Z,34.15
2017-12-19T06:16:19.154Z,35.25
2017-12-19T06:18:46.482Z,34.45
2017-12-19T06:21:13.722Z,35.20
2017-12-19T06:23:40.954Z,29.37
2017-12-19T06:26:08.207Z,35.88
2017-12-19T06:28:35.444Z,39.13
2017-12-19T06:31:02.673Z,32.40
2017-12-19T06:33:29.901Z,30.73
2017-12-19T06:35:57.139Z,30.33
2017-12-19T06:38:24.389Z,32.30
2017-12-19T06:40:51.697Z,34.53
2017-12-19T06:43:18.996Z,35.05
2017-12-19T06:45:46.231Z,33.72
2017-12-19T06:48:13.458Z,31.00
2017-12-19T06:50:40.709Z,29.40
2017-12-19T06:53:07.945Z,33.53
2017-12-19T06:55:35.182Z,44.97
2017-12-19T06:58:02.413Z,29.80
2017-12-19T07:00:29.653Z,32.78
2017-12-19T07:02:56.917Z,32.85
2017-12-19T07:05:24.163Z,32.92
2017-12-19T07:07:51.407Z,37.20
2017-12-19T07:10:18.637Z,30.02
2017-12-19T07:12:45.879Z,30.75
2017-12-19T07:15:13.112Z,32.25
2017-12-19T07:17:40.417Z,28.83
2017-12-19T07:20:07.683Z,30.00
2017-12-19T07:22:34.923Z,29.08
2017-12-19T07:25:02.168Z,30.45
2017-12-19T07:27:29.402Z,34.30
2017-12-19T07:29:56.634Z,28.35
2017-12-19T07:32:23.870Z,31.62
2017-12-19T07:34:51.098Z,40.45
2017-12-19T07:37:18.341Z,38.25
2017-12-19T07:39:45.569Z,41.72
2017-12-19T07:42:12.814Z,38.50
2017-12-19T07:44:40.045Z,36.17
2017-12-19T07:47:07.342Z,36.45
2017-12-19T07:49:34.578Z,35.15
2017-12-19T07:52:01.816Z,36.10
2017-12-19T07:54:29.053Z,31.70
2017-12-19T07:56:56.286Z,29.35
2017-12-19T07:59:23.523Z,29.17
2017-12-19T08:01:50.765Z,31.00
2017-12-19T08:04:17.994Z,31.70
2017-12-19T08:06:45.238Z,31.30
2017-12-19T08:09:12.474Z,34.88
2017-12-19T08:11:39.701Z,36.92
2017-12-19T08:14:06.941Z,36.88
2017-12-19T08:16:34.171Z,35.45
2017-12-19T08:19:01.512Z,33.92
2017-12-19T08:21:28.762Z,32.85
2017-12-19T08:23:56.005Z,34.72
2017-12-19T08:26:23.277Z,32.17
2017-12-19T08:28:50.518Z,33.75
2017-12-19T08:31:17.745Z,32.33
2017-12-19T08:33:44.993Z,32.58
2017-12-19T08:36:12.223Z,34.63
2017-12-19T08:38:39.457Z,30.85
2017-12-19T08:41:06.697Z,30.67
2017-12-19T08:43:33.929Z,32.70
2017-12-19T08:46:01.167Z,30.45
2017-12-19T08:48:28.403Z,28.30
2017-12-19T08:50:55.644Z,33.20
2017-12-19T08:53:22.877Z,28.67
2017-12-19T08:55:50.106Z,31.58
2017-12-19T08:58:17.443Z,30.55
2017-12-19T09:00:44.670Z,30.33
2017-12-19T09:03:11.914Z,32.80
2017-12-19T09:05:39.145Z,30.20
2017-12-19T09:08:06.446Z,30.95
2017-12-19T09:10:33.737Z,41.03
2017-12-19T09:13:00.939Z,46.47
2017-12-19T09:15:28.171Z,32.58
2017-12-19T09:17:55.418Z,38.53
2017-12-19T09:20:22.705Z,40.03
2017-12-19T09:22:49.957Z,31.45
2017-12-19T09:25:17.195Z,31.10
2017-12-19T09:27:44.473Z,32.15
2017-12-19T09:30:11.713Z,30.50
2017-12-19T09:32:38.951Z,30.00
2017-12-19T09:35:06.189Z,30.12
2017-12-19T09:37:33.422Z,33.80
2017-12-19T09:40:00.658Z,32.03
2017-12-19T09:42:27.885Z,32.05
2017-12-19T09:44:55.135Z,30.30
2017-12-19T09:47:22.357Z,31.10
2017-12-19T09:49:49.601Z,31.80
2017-12-19T09:52:16.837Z,31.48
2017-12-19T09:54:44.074Z,29.12
2017-12-19T09:57:11.313Z,30.30
2017-12-19T09:59:38.552Z,31.35
2017-12-19T10:02:05.780Z,27.60
2017-12-19T10:04:33.026Z,27.45
2017-12-19T10:07:00.258Z,31.87
2017-12-19T10:09:27.600Z,42.92
2017-12-19T10:11:54.813Z,33.70
2017-12-19T10:14:22.053Z,31.60
2017-12-19T10:16:49.300Z,30.40
2017-12-19T10:19:16.533Z,27.30
2017-12-19T10:21:43.770Z,24.77
2017-12-19T10:24:11.000Z,24.48
2017-12-19T10:26:38.313Z,23.15
2017-12-19T10:29:05.542Z,25.27
2017-12-19T10:31:32.777Z,27.70
2017-12-19T10:34:00.016Z,25.75
2017-12-19T10:36:27.251Z,28.38
2017-12-19T10:38:54.478Z,28.10
2017-12-19T10:41:21.809Z,24.77
2017-12-19T10:43:49.047Z,28.60
2017-12-19T10:46:16.288Z,24.83
2017-12-19T10:48:43.574Z,26.15
2017-12-19T10:51:10.809Z,26.80
2017-12-19T10:53:38.042Z,24.27
2017-12-19T10:56:05.320Z,28.10
2017-12-19T10:58:32.581Z,27.83
2017-12-19T11:00:59.930Z,25.70
2017-12-19T11:03:27.158Z,26.17
2017-12-19T11:05:54.405Z,25.42
2017-12-19T11:08:21.640Z,25.67
2017-12-19T11:10:48.877Z,27.15
2017-12-19T11:13:16.106Z,24.50
2017-12-19T11:15:43.341Z,25.05
2017-12-19T11:18:10.573Z,22.10
2017-12-19T11:20:37.813Z,23.48
2017-12-19T11:23:05.037Z,23.73
2017-12-19T11:25:32.352Z,24.67
2017-12-19T11:27:59.586Z,21.50
2017-12-19T11:30:26.824Z,22.80
2017-12-19T11:32:54.061Z,21.27
2017-12-19T11:35:21.356Z,24.10
2017-12-19T11:37:48.590Z,26.62
2017-12-19T11:40:15.819Z,24.20
2017-12-19T11:42:43.058Z,24.37
2017-12-19T11:45:10.295Z,24.27
2017-12-19T11:47:37.631Z,21.92
2017-12-19T11:50:04.850Z,23.10
2017-12-19T11:52:32.090Z,24.05
2017-12-19T11:54:59.369Z,23.50
2017-12-19T11:57:26.721Z,22.52
2017-12-19T11:59:53.950Z,22.95
2017-12-19T12:02:21.231Z,21.55
2017-12-19T12:04:48.457Z,21.65
2017-12-19T12:07:15.702Z,21.02
2017-12-19T12:09:42.933Z,21.17
2017-12-19T12:12:10.178Z,22.85
2017-12-19T12:14:37.406Z,23.58
2017-12-19T12:17:04.644Z,22.52
2017-12-19T12:19:31.880Z,23.27
2017-12-19T12:21:59.113Z,21.98
2017-12-19T12:24:26.306Z,23.62
2017-12-19T12:26:53.606Z,21.62
2017-12-19T12:29:20.832Z,22.23
2017-12-19T12:31:48.151Z,22.92
2017-12-19T12:34:15.385Z,23.15
2017-12-19T12:36:42.622Z,24.42
2017-12-19T12:39:09.849Z,25.05
2017-12-19T12:41:37.093Z,22.15
2017-12-19T12:44:04.324Z,21.37
2017-12-19T12:46:31.661Z,22.05
2017-12-19T12:48:58.901Z,22.40
2017-12-19T12:51:26.134Z,23.38
2017-12-19T12:53:53.413Z,21.60
2017-12-19T12:56:20.651Z,21.23
2017-12-19T12:58:47.890Z,21.55
2017-12-19T13:01:15.118Z,20.42
2017-12-19T13:03:42.357Z,19.52
2017-12-19T13:06:09.585Z,21.10
2017-12-19T13:08:36.931Z,22.00
2017-12-19T13:11:04.157Z,24.05
2017-12-19T13:13:31.401Z,21.67
2017-12-19T13:15:58.629Z,22.35
2017-12-19T13:18:25.872Z,23.40
2017-12-19T13:20:53.106Z,26.77
2017-12-19T13:23:20.346Z,25.88
2017-12-19T13:25:47.569Z,26.45
2017-12-19T13:28:14.838Z,26.50
2017-12-19T13:30:42.065Z,28.85
2017-12-19T13:33:09.315Z,30.85
2017-12-19T13:35:36.544Z,28.38
2017-12-19T13:38:03.847Z,30.70
2017-12-19T13:40:31.087Z,29.52
2017-12-19T13:42:58.317Z,28.00
2017-12-19T13:45:25.556Z,29.50
2017-12-19T13:47:52.853Z,29.48
2017-12-19T13:50:20.090Z,28.90
2017-12-19T13:52:47.370Z,31.45
2017-12-19T13:55:14.617Z,27.48
2017-12-19T13:57:41.841Z,29.05
2017-12-19T14:00:09.113Z,25.45
2017-12-19T14:02:36.347Z,29.50
2017-12-19T14:05:03.617Z,26.73
2017-12-19T14:07:30.859Z,26.75
2017-12-19T14:09:58.097Z,23.60
2017-12-19T14:12:25.339Z,27.87
2017-12-19T14:14:52.581Z,32.33
2017-12-19T14:17:19.801Z,28.25
2017-12-19T14:19:47.041Z,26.15
2017-12-19T14:22:14.270Z,27.73
2017-12-19T14:24:41.525Z,28.00
2017-12-19T14:27:08.757Z,38.78
2017-12-19T14:29:35.988Z,42.70
2017-12-19T14:32:03.221Z,32.83
2017-12-19T14:34:30.461Z,29.80
2017-12-19T14:36:57.701Z,28.00
2017-12-19T14:39:25.042Z,30.70
2017-12-19T14:41:52.287Z,26.50
2017-12-19T14:44:19.564Z,20.85
2017-12-19T14:46:46.904Z,25.27
2017-12-19T14:49:14.147Z,25.95
2017-12-19T14:51:41.410Z,20.33
2017-12-19T14:54:08.646Z,21.05
2017-12-19T14:56:35.914Z,20.08
2017-12-19T14:59:03.145Z,23.83
2017-12-19T15:01:30.386Z,31.25
2017-12-19T15:03:57.619Z,25.33
2017-12-19T15:06:25.397Z,23.98
2017-12-19T15:08:52.625Z,27.50
2017-12-19T15:11:19.884Z,32.33
2017-12-19T15:13:47.114Z,30.60
2017-12-19T15:16:14.450Z,29.27
2017-12-19T15:18:41.694Z,34.13
2017-12-19T15:21:08.933Z,33.38
2017-12-19T15:23:36.170Z,31.87
2017-12-19T15:26:03.423Z,29.12
2017-12-19T15:28:30.658Z,28.15
2017-12-19T15:30:57.950Z,24.35
2017-12-19T15:33:25.197Z,24.48
2017-12-19T15:35:52.421Z,24.95
2017-12-19T15:38:19.664Z,25.08
2017-12-19T15:40:46.889Z,24.48
2017-12-19T15:43:14.126Z,25.55
2017-12-19T15:45:41.455Z,25.15
2017-12-19T15:48:08.698Z,24.98
2017-12-19T15:50:35.933Z,23.83
2017-12-19T15:53:03.173Z,23.10
2017-12-19T15:55:30.496Z,22.90
2017-12-19T15:57:57.826Z,23.42
2017-12-19T16:00:25.058Z,23.48
2017-12-19T16:02:52.298Z,25.27
2017-12-19T16:05:19.520Z,22.85
2017-12-19T16:07:46.758Z,25.12
2017-12-19T16:10:13.985Z,25.55
2017-12-19T16:12:41.221Z,28.98
2017-12-19T16:15:08.450Z,29.30
2017-12-19T16:17:35.738Z,31.40
2017-12-19T16:20:02.990Z,32.20
2017-12-19T16:22:30.210Z,29.92
2017-12-19T16:24:57.443Z,31.40
2017-12-19T16:27:24.669Z,33.58
2017-12-19T16:29:51.905Z,30.58
2017-12-19T16:32:19.137Z,32.42
2017-12-19T16:34:46.378Z,31.95
2017-12-19T16:37:13.618Z,30.65
2017-12-19T16:39:40.862Z,32.70
2017-12-19T16:42:08.091Z,31.83
2017-12-19T16:44:35.402Z,35.72
2017-12-19T16:47:02.629Z,39.30
2017-12-19T16:49:29.879Z,34.83
2017-12-19T16:51:57.105Z,37.10
2017-12-19T16:54:24.350Z,33.28
2017-12-19T16:56:52.710Z,33.42
2017-12-19T16:59:19.945Z,34.08
2017-12-19T17:01:47.178Z,38.35
2017-12-19T17:04:14.439Z,34.80
2017-12-19T17:06:41.666Z,41.20
2017-12-19T17:09:08.905Z,36.58
2017-12-19T17:11:36.129Z,38.88
2017-12-19T17:14:03.363Z,36.03
2017-12-19T17:16:30.596Z,36.60
2017-12-19T17:18:57.857Z,32.28
2017-12-19T17:21:25.135Z,33.67
2017-12-19T17:23:52.499Z,35.65
2017-12-19T17:26:19.809Z,31.08
2017-12-19T17:28:47.037Z,33.55
2017-12-19T17:31:14.273Z,36.17
2017-12-19T17:33:41.501Z,36.80
2017-12-19T17:36:08.742Z,33.42
2017-12-19T17:38:35.980Z,35.17
2017-12-19T17:41:03.215Z,31.92
2017-12-19T17:43:30.442Z,30.58
2017-12-19T17:45:57.722Z,35.95
2017-12-19T17:48:24.977Z,35.92
2017-12-19T17:50:52.208Z,36.33
2017-12-19T17:53:20.976Z,33.17
2017-12-19T17:55:48.507Z,34.72
2017-12-19T17:58:15.777Z,31.62
2017-12-19T18:00:43.006Z,36.25
2017-12-19T18:03:10.281Z,39.33
2017-12-19T18:05:37.513Z,40.35
2017-12-19T18:08:04.788Z,38.05
2017-12-19T18:10:32.045Z,40.70
2017-12-19T18:12:59.317Z,39.90
2017-12-19T18:15:26.580Z,32.83
2017-12-19T18:17:53.854Z,34.92
2017-12-19T18:20:21.077Z,30.40
2017-12-19T18:22:48.319Z,35.75
2017-12-19T18:25:15.597Z,30.40
2017-12-19T18:27:42.894Z,34.35
2017-12-19T18:30:10.114Z,39.50
2017-12-19T18:32:37.450Z,38.15
2017-12-19T18:35:04.728Z,43.15
2017-12-19T18:37:32.012Z,59.45
2017-12-19T18:39:59.225Z,71.80
2017-12-19T18:42:26.500Z,51.05
2017-12-19T18:44:53.763Z,44.00
2017-12-19T18:47:21.070Z,44.13
2017-12-19T18:49:48.373Z,44.65
2017-12-19T18:52:15.673Z,47.40
2017-12-19T18:54:42.901Z,46.92
2017-12-19T18:57:10.188Z,47.53
2017-12-19T18:59:37.402Z,45.60
2017-12-19T19:02:04.728Z,53.67
2017-12-19T19:04:31.989Z,49.55
2017-12-19T19:06:59.265Z,53.10
2017-12-19T19:09:26.483Z,48.75
2017-12-19T19:11:53.797Z,49.13
2017-12-19T19:14:21.085Z,46.08
2017-12-19T19:16:48.441Z,49.35
2017-12-19T19:19:15.805Z,41.65
2017-12-19T19:21:43.089Z,41.15
2017-12-19T19:24:10.360Z,37.85
2017-12-19T19:26:37.665Z,39.03
2017-12-19T19:29:04.935Z,36.53
2017-12-19T19:31:32.200Z,31.48
2017-12-19T19:33:59.478Z,32.72
2017-12-19T19:36:26.751Z,32.08
2017-12-19T19:38:54.026Z,28.92
2017-12-19T19:41:21.284Z,26.73
2017-12-19T19:43:48.553Z,29.55
2017-12-19T19:46:15.771Z,29.45
2017-12-19T19:48:43.053Z,29.77
2017-12-19T19:51:10.308Z,29.73
2017-12-19T19:53:37.632Z,31.15
2017-12-19T19:56:04.912Z,36.97
2017-12-19T19:58:32.188Z,41.83
2017-12-19T20:00:59.514Z,32.63
2017-12-19T20:03:26.793Z,31.73
2017-12-19T20:05:54.047Z,33.38
2017-12-19T20:08:21.329Z,32.95
2017-12-19T20:10:48.610Z,30.65
2017-12-19T20:13:15.884Z,30.98
2017-12-19T20:15:43.153Z,30.23
2017-12-19T20:18:10.426Z,26.70
2017-12-19T20:20:37.688Z,28.25
2017-12-19T20:23:05.027Z,27.25
2017-12-19T20:25:32.306Z,29.98
2017-12-19T20:27:59.573Z,31.48
2017-12-19T20:30:26.799Z,34.30
2017-12-19T20:32:54.073Z,55.80
2017-12-19T20:35:21.343Z,35.83
2017-12-19T20:37:48.671Z,36.92
2017-12-19T20:40:15.945Z,37.47
2017-12-19T20:42:43.161Z,39.22
2017-12-19T20:45:10.447Z,36.85
2017-12-19T20:47:37.709Z,40.20
2017-12-19T20:50:04.980Z,32.75
2017-12-19T20:52:32.244Z,30.62
2017-12-19T20:54:59.530Z,32.75
2017-12-19T20:57:26.742Z,28.42
2017-12-19T20:59:54.030Z,30.40
2017-12-19T21:02:21.296Z,29.12
2017-12-19T21:04:48.644Z,31.05
2017-12-19T21:07:15.909Z,32.20
2017-12-19T21:09:43.188Z,29.58
2017-12-19T21:12:10.467Z,28.52
2017-12-19T21:14:37.754Z,24.02
2017-12-19T21:17:05.012Z,26.83
2017-12-19T21:19:32.288Z,28.80
2017-12-19T21:21:59.544Z,28.20
2017-12-19T21:24:26.882Z,28.77
2017-12-19T21:26:54.154Z,26.70
2017-12-19T21:29:21.481Z,28.27
2017-12-19T21:31:48.853Z,27.62
2017-12-19T21:34:16.202Z,25.75
2017-12-19T21:36:43.478Z,26.90
2017-12-19T21:39:10.747Z,26.95
2017-12-19T21:41:38.052Z,31.02
2017-12-19T21:44:05.310Z,29.63
2017-12-19T21:46:32.652Z,31.37
2017-12-19T21:48:59.912Z,29.92
2017-12-19T21:51:27.145Z,31.08
2017-12-19T21:53:54.428Z,29.20
2017-12-19T21:56:21.654Z,28.55
2017-12-19T21:58:48.932Z,25.85
2017-12-19T22:02:37.469Z,28.25
2017-12-19T22:05:04.749Z,27.77
2017-12-19T22:07:32.012Z,20.95
2017-12-19T22:09:59.280Z,22.48
2017-12-19T22:12:26.594Z,22.23
2017-12-19T22:14:53.869Z,21.92
2017-12-19T22:17:21.148Z,18.70
2017-12-19T22:19:48.411Z,19.20
2017-12-19T22:22:15.683Z,18.87
2017-12-19T22:24:42.956Z,20.90
2017-12-19T22:27:10.310Z,20.85
2017-12-19T22:29:37.574Z,20.50
2017-12-19T22:32:04.848Z,18.00
2017-12-19T22:34:32.130Z,18.48
2017-12-19T22:36:59.360Z,18.17
2017-12-19T22:39:26.581Z,18.90
2017-12-19T22:41:53.868Z,17.35
2017-12-19T22:44:21.137Z,17.37
2017-12-19T22:46:48.410Z,18.12
2017-12-19T22:49:15.684Z,18.50
2017-12-19T22:51:43.033Z,19.75
2017-12-19T22:54:10.306Z,17.55
2017-12-19T22:56:37.588Z,19.02
2017-12-19T22:59:04.860Z,16.40
2017-12-19T23:01:32.153Z,16.73
2017-12-19T23:03:59.419Z,12.88
2017-12-19T23:06:26.747Z,11.68
2017-12-19T23:08:54.109Z,11.55
2017-12-19T23:11:21.338Z,11.23
2017-12-19T23:13:48.611Z,9.73
2017-12-19T23:16:15.829Z,10.18
2017-12-19T23:18:43.153Z,9.82
2017-12-19T23:21:10.435Z,9.63
2017-12-19T23:23:37.710Z,9.85
2017-12-19T23:26:04.922Z,8.30
2017-12-19T23:28:33.125Z,8.80
2017-12-19T23:31:00.390Z,7.82
2017-12-19T23:33:27.698Z,11.45
2017-12-19T23:35:54.926Z,11.27
2017-12-19T23:38:22.212Z,6.75
2017-12-19T23:40:49.427Z,6.93
2017-12-19T23:43:16.744Z,6.40
2017-12-19T23:45:43.962Z,7.75
2017-12-19T23:48:11.241Z,7.18
2017-12-19T23:50:38.446Z,6.95
2017-12-19T23:53:05.707Z,7.57
2017-12-19T23:55:32.953Z,6.30
2017-12-19T23:58:00.190Z,7.32
